Time;durP1;ratioP1;P1;durP2;ratioP2;P2;SDS_P1;SDS_P2;PMS_P1;PMS_P2;Temp;Humidity;BMP_temperature;BMP_pressure;BME280_temperature;BME280_humidity;BME280_pressure;Samples;Min_cycle;Max_cycle;Signal;HPM_P1;HPM_P2
2021/07/21 05:04:13;;;;;;;;;26.00;24.00;;;;;23.07;53.49;101756.25;5223816;22;45460;-88
2021/07/21 05:06:38;;;;;;;;;23.00;22.25;;;;;23.02;53.69;101752.00;5005295;28;45234;-87
2021/07/21 05:09:07;;;;;;;;;25.00;22.25;;;;;23.00;53.61;101762.78;4998379;28;45213;-89
2021/07/21 05:11:33;;;;;;;;;25.75;22.25;;;;;23.00;53.85;101762.78;4997336;28;45267;-89
2021/07/21 05:13:58;;;;;;;;;19.25;18.00;;;;;22.98;54.14;101767.34;5006423;28;48166;-87
2021/07/21 05:16:24;;;;;;;;;20.75;19.25;;;;;22.94;54.02;101760.31;5008625;28;45302;-86
2021/07/21 05:18:50;;;;;;;;;26.25;22.50;;;;;22.88;54.17;101753.38;5001723;28;45305;-89
2021/07/21 05:21:16;;;;;;;;;25.50;22.25;;;;;22.90;54.06;101758.66;4975818;28;45520;-86
2021/07/21 05:23:41;;;;;;;;;23.25;21.00;;;;;22.93;54.54;101763.03;4990257;28;46827;-86
2021/07/21 05:26:07;;;;;;;;;21.75;20.50;;;;;22.96;54.51;101776.34;4994791;28;45216;-87
2021/07/21 05:28:35;;;;;;;;;26.25;22.00;;;;;22.94;54.48;101770.19;4988509;28;45328;-87
2021/07/21 05:31:03;;;;;;;;;25.50;22.50;;;;;22.94;54.25;101776.44;5002747;28;44918;-90
2021/07/21 05:33:31;;;;;;;;;28.00;25.00;;;;;22.93;54.20;101771.09;4989212;28;46869;-88
2021/07/21 05:36:10;;;;;;;;;;;;;;;;;;;;;
2021/07/21 05:38:36;;;;;;;;;22.75;20.25;;;;;22.91;54.39;101779.25;5006613;28;69604;-87
2021/07/21 05:41:05;;;;;;;;;32.25;27.25;;;;;22.98;54.72;101785.25;5000571;28;44722;-90
2021/07/21 05:43:31;;;;;;;;;29.25;23.75;;;;;23.01;54.48;101786.00;4989719;28;46903;-88
2021/07/21 05:45:56;;;;;;;;;26.00;22.75;;;;;23.04;54.32;101791.28;4988205;28;45616;-92
2021/07/21 05:48:22;;;;;;;;;25.00;20.75;;;;;23.04;54.24;101787.69;5002230;28;44738;-93
2021/07/21 05:50:48;;;;;;;;;25.75;24.25;;;;;23.08;54.09;101798.28;4999241;28;44730;-92
2021/07/21 05:53:13;;;;;;;;;26.00;23.75;;;;;23.05;54.43;101784.97;4996085;28;46944;-93
2021/07/21 05:55:38;;;;;;;;;21.00;20.75;;;;;23.11;54.26;101790.09;5003160;28;45207;-91
2021/07/21 05:58:05;;;;;;;;;25.00;24.00;;;;;23.18;54.42;101806.00;4994462;28;45423;-93
2021/07/21 06:00:33;;;;;;;;;25.25;22.75;;;;;23.17;54.53;101801.53;4990266;28;45469;-91
2021/07/21 06:03:00;;;;;;;;;23.50;20.25;;;;;23.18;54.37;101796.13;4978439;28;45402;-85
2021/07/21 06:05:37;;;;;;;;;24.75;23.25;;;;;23.25;54.13;101799.41;5013768;28;45395;-85
2021/07/21 06:08:12;;;;;;;;;28.25;23.25;;;;;23.27;54.43;101797.56;4995424;28;45247;-88
2021/07/21 06:10:37;;;;;;;;;28.25;25.00;;;;;23.27;54.01;101803.78;5003897;28;45417;-84
2021/07/21 06:13:02;;;;;;;;;30.00;28.50;;;;;23.29;53.83;101803.75;5000846;28;46959;-87
2021/07/21 06:15:29;;;;;;;;;30.00;27.25;;;;;23.35;53.64;101808.88;5015811;28;45155;-88
2021/07/21 06:17:55;;;;;;;;;28.25;24.50;;;;;23.39;53.80;101812.28;4993499;28;45229;-86
2021/07/21 06:20:20;;;;;;;;;26.00;24.25;;;;;23.40;53.95;101817.63;4999415;28;45430;-86
2021/07/21 06:22:47;;;;;;;;;29.00;23.75;;;;;23.43;53.81;101822.00;5021487;28;45925;-85
2021/07/21 06:25:16;;;;;;;;;27.25;26.00;;;;;23.43;53.77;101814.81;5022745;28;46294;-85
2021/07/21 06:27:42;;;;;;;;;30.75;27.50;;;;;23.49;53.35;101830.69;5011901;28;44669;-87
2021/07/21 06:30:08;;;;;;;;;27.50;24.50;;;;;23.55;53.16;101829.59;5000392;28;45243;-87
2021/07/21 06:32:38;;;;;;;;;29.25;24.50;;;;;23.60;53.28;101832.06;5001455;28;45422;-85
2021/07/21 06:35:08;;;;;;;;;27.25;23.75;;;;;23.62;53.38;101828.38;5013240;28;45363;-84
2021/07/21 06:37:34;;;;;;;;;24.00;24.00;;;;;23.68;53.09;101833.53;5010169;28;45434;-80
2021/07/21 06:39:59;;;;;;;;;29.25;26.50;;;;;23.70;52.40;101834.31;5001749;28;45495;-79
2021/07/21 06:42:25;;;;;;;;;31.75;28.00;;;;;23.77;52.22;101843.91;5000108;28;45442;-78
2021/07/21 06:44:52;;;;;;;;;29.00;23.25;;;;;23.79;51.99;101830.41;5015941;28;45465;-80
2021/07/21 06:47:17;;;;;;;;;28.00;24.75;;;;;23.90;51.81;101832.66;5009601;28;45407;-79
2021/07/21 06:49:43;;;;;;;;;29.00;27.50;;;;;23.94;51.20;101835.13;5014553;28;45339;-78
2021/07/21 06:52:11;;;;;;;;;24.00;24.00;;;;;23.98;50.95;101842.16;5008935;28;45630;-78
2021/07/21 06:54:36;;;;;;;;;32.00;29.75;;;;;24.05;50.54;101845.44;5005389;28;45244;-80
2021/07/21 06:57:02;;;;;;;;;27.00;23.50;;;;;24.10;50.88;101843.44;5008022;28;45467;-78
2021/07/21 06:59:28;;;;;;;;;27.25;26.25;;;;;24.16;51.07;101853.94;4999536;28;45502;-91
2021/07/21 07:01:54;;;;;;;;;28.25;25.50;;;;;24.20;50.54;101854.69;5000862;28;47782;-86
2021/07/21 07:04:19;;;;;;;;;31.25;26.50;;;;;24.23;50.47;101850.97;5013568;28;45146;-81
2021/07/21 07:06:48;;;;;;;;;29.50;29.50;;;;;24.32;50.41;101853.25;5005352;28;45475;-79
2021/07/21 07:09:15;;;;;;;;;28.75;25.50;;;;;24.38;49.98;101853.88;5002858;28;45455;-78
2021/07/21 07:11:41;;;;;;;;;24.75;23.50;;;;;24.42;49.75;101847.41;5008157;28;47004;-84
2021/07/21 07:14:08;;;;;;;;;35.25;31.00;;;;;24.46;49.79;101853.59;5004427;28;45170;-83
2021/07/21 07:16:34;;;;;;;;;30.50;25.50;;;;;24.49;49.32;101844.50;5009632;28;45434;-81
2021/07/21 07:19:00;;;;;;;;;28.75;25.00;;;;;24.54;49.46;101855.91;5012848;28;45439;-83
2021/07/21 07:21:28;;;;;;;;;26.00;24.00;;;;;24.61;49.30;101850.19;5009540;28;46976;-82
2021/07/21 07:23:55;;;;;;;;;27.75;24.50;;;;;24.69;49.18;101852.53;5008533;28;46667;-82
2021/07/21 07:26:23;;;;;;;;;27.00;22.75;;;;;24.76;48.61;101854.03;5011080;28;45212;-82
2021/07/21 07:28:50;;;;;;;;;31.50;29.50;;;;;24.83;48.53;101847.41;5006326;28;45562;-81
2021/07/21 07:31:15;;;;;;;;;24.75;23.50;;;;;24.87;48.18;101848.13;5006100;28;47215;-81
2021/07/21 07:33:41;;;;;;;;;24.25;21.50;;;;;24.90;48.43;101853.38;5004516;28;45455;-84
2021/07/21 07:36:06;;;;;;;;;28.50;25.25;;;;;24.92;48.34;101853.31;5006458;28;45380;-82
2021/07/21 07:38:34;;;;;;;;;28.25;27.25;;;;;25.01;48.05;101847.50;5012674;28;45371;-82
2021/07/21 07:40:59;;;;;;;;;27.00;22.00;;;;;25.12;48.22;101860.47;5011791;28;45599;-82
2021/07/21 07:43:25;;;;;;;;;27.75;25.00;;;;;25.19;48.02;101857.44;5005948;28;45234;-84
2021/07/21 07:45:52;;;;;;;;;30.75;28.25;;;;;25.29;47.80;101852.50;5007620;28;45677;-82
2021/07/21 07:48:22;;;;;;;;;26.00;25.00;;;;;25.36;47.46;101861.16;5015133;28;45346;-90
2021/07/21 07:51:23;;;;;;;;;26.75;21.75;;;;;25.38;46.74;101843.09;4999766;28;46103;-88
2021/07/21 07:53:56;;;;;;;;;26.75;25.50;;;;;25.47;47.03;101848.94;4939513;28;45443;-85
2021/07/21 07:56:22;;;;;;;;;26.75;23.75;;;;;25.57;47.04;101845.78;4992421;28;45361;-83
2021/07/21 07:58:47;;;;;;;;;24.00;21.50;;;;;25.65;46.74;101849.81;5001165;28;45906;-84
2021/07/21 08:01:13;;;;;;;;;25.00;24.50;;;;;25.70;46.01;101844.22;5004608;28;46109;-86
2021/07/21 08:03:38;;;;;;;;;25.25;23.00;;;;;25.73;45.98;101839.53;5003137;28;45689;-85
2021/07/21 08:06:04;;;;;;;;;30.25;26.00;;;;;25.75;45.64;101839.47;5034544;28;45201;-84
2021/07/21 08:08:30;;;;;;;;;28.75;27.25;;;;;25.84;45.87;101841.72;4997221;28;45426;-84
2021/07/21 08:10:55;;;;;;;;;27.75;23.25;;;;;25.95;45.63;101838.47;5016941;28;48235;-82
2021/07/21 08:13:22;;;;;;;;;23.00;21.50;;;;;26.07;45.11;101842.41;5003235;28;45396;-82
2021/07/21 08:15:48;;;;;;;;;29.25;25.00;;;;;26.12;44.74;101841.19;5016423;28;45421;-84
2021/07/21 08:18:14;;;;;;;;;24.50;21.25;;;;;26.15;44.64;101850.97;5000947;28;45554;-83
2021/07/21 08:20:42;;;;;;;;;22.75;22.00;;;;;26.22;44.74;101848.81;5007394;28;46353;-83
2021/07/21 08:23:08;;;;;;;;;23.50;21.25;;;;;26.34;44.49;101856.28;5010257;28;45393;-82
2021/07/21 08:25:34;;;;;;;;;23.25;22.25;;;;;26.41;44.01;101844.22;5014088;28;45460;-82
2021/07/21 08:28:00;;;;;;;;;25.50;21.25;;;;;26.52;44.30;101846.38;5013296;28;45368;-83
2021/07/21 08:30:26;;;;;;;;;26.50;23.50;;;;;26.61;44.60;101851.28;5007756;28;45401;-83
2021/07/21 08:32:53;;;;;;;;;24.00;23.00;;;;;26.63;43.75;101856.63;5002676;28;45423;-83
2021/07/21 08:35:30;;;;;;;;;29.25;28.00;;;;;26.68;43.60;101846.41;5006698;28;45560;-82
2021/07/21 08:37:57;;;;;;;;;23.75;21.75;;;;;26.73;43.03;101855.13;5008574;28;45224;-83
2021/07/21 08:40:23;;;;;;;;;24.25;22.50;;;;;26.79;42.86;101849.44;5020816;28;46369;-82
2021/07/21 08:42:48;;;;;;;;;25.50;23.00;;;;;26.86;42.96;101852.66;5009302;28;45190;-82
2021/07/21 08:45:14;;;;;;;;;24.50;22.25;;;;;26.93;42.25;101860.34;5016630;28;45248;-82
2021/07/21 08:47:40;;;;;;;;;25.25;20.50;;;;;27.00;42.24;101855.50;5014019;28;45372;-83
2021/07/21 08:50:08;;;;;;;;;23.50;21.75;;;;;27.01;41.64;101846.41;5008593;28;46316;-82
2021/07/21 08:52:34;;;;;;;;;22.75;20.50;;;;;27.05;41.78;101850.69;5008734;28;45387;-82
2021/07/21 08:55:01;;;;;;;;;18.00;18.00;;;;;27.16;41.67;101855.47;5016338;28;45273;-82
2021/07/21 08:57:30;;;;;;;;;23.25;20.75;;;;;27.27;41.41;101848.56;5013912;28;45167;-81
2021/07/21 09:00:00;;;;;;;;;24.50;21.25;;;;;27.38;41.12;101857.91;5002585;28;46995;-82
2021/07/21 09:02:26;;;;;;;;;21.50;19.00;;;;;27.49;40.19;101845.50;5001824;28;45248;-82
2021/07/21 09:04:52;;;;;;;;;24.00;18.00;;;;;27.58;40.93;101849.50;5014007;28;45177;-82
2021/07/21 09:07:19;;;;;;;;;18.00;17.00;;;;;27.65;40.60;101840.09;5008673;28;45471;-81
2021/07/21 09:09:45;;;;;;;;;17.25;17.25;;;;;27.77;40.12;101841.19;5009374;28;45359;-81
2021/07/21 09:12:17;;;;;;;;;21.50;18.50;;;;;27.95;40.14;101860.06;5008158;28;45463;-81
2021/07/21 09:14:44;;;;;;;;;19.00;16.00;;;;;28.04;39.92;101845.97;5014820;28;45248;-81
2021/07/21 09:17:09;;;;;;;;;18.25;18.00;;;;;28.13;39.80;101848.16;5016445;28;45185;-82
2021/07/21 09:19:37;;;;;;;;;26.25;20.50;;;;;28.18;40.11;101851.44;5014626;28;46191;-82
2021/07/21 09:22:36;;;;;;;;;26.25;23.50;;;;;28.29;39.51;101857.09;5015400;28;45354;-82
2021/07/21 09:25:18;;;;;;;;;19.75;19.50;;;;;28.30;39.12;101852.53;5007809;28;45222;-81
2021/07/21 09:27:49;;;;;;;;;24.50;21.00;;;;;28.34;38.91;101848.69;5010214;28;45406;-81
2021/07/21 09:30:18;;;;;;;;;21.25;19.00;;;;;28.33;39.33;101853.22;5004985;28;45367;-82
2021/07/21 09:33:02;;;;;;;;;19.00;19.00;;;;;28.38;39.12;101853.78;4993950;28;45418;-81
2021/07/21 09:35:34;;;;;;;;;18.25;15.50;;;;;28.46;38.23;101850.66;4988692;28;45669;-83
2021/07/21 09:38:04;;;;;;;;;16.00;15.25;;;;;28.52;38.25;101855.72;4987439;28;45424;-81
2021/07/21 09:40:29;;;;;;;;;18.00;16.25;;;;;28.54;37.87;101848.34;5007785;28;46136;-82
2021/07/21 09:42:55;;;;;;;;;18.00;17.25;;;;;28.56;38.46;101851.84;5011004;28;45194;-82
2021/07/21 09:45:21;;;;;;;;;18.75;17.75;;;;;28.61;38.21;101848.84;5013726;28;45286;-82
2021/07/21 09:47:58;;;;;;;;;16.75;15.00;;;;;28.68;38.25;101850.22;5012611;28;45445;-82
2021/07/21 09:50:27;;;;;;;;;18.50;18.00;;;;;28.79;38.29;101852.25;5010734;28;48231;-82
2021/07/21 09:53:10;;;;;;;;;14.50;14.00;;;;;28.88;37.70;101838.09;5015976;28;45340;-82
2021/07/21 09:55:37;;;;;;;;;19.75;18.25;;;;;28.96;37.98;101841.19;5013745;28;45272;-83
2021/07/21 09:58:13;;;;;;;;;22.75;19.75;;;;;29.11;37.92;101849.34;5006120;28;45485;-84
2021/07/21 10:00:46;;;;;;;;;19.25;17.50;;;;;29.14;37.24;101843.75;5004955;28;46312;-83
2021/07/21 10:03:19;;;;;;;;;16.50;14.50;;;;;29.14;36.84;101830.19;4998536;28;45330;-86
2021/07/21 10:06:09;;;;;;;;;19.00;16.50;;;;;29.19;36.86;101839.75;5007353;28;45392;-83
2021/07/21 10:08:41;;;;;;;;;21.25;18.50;;;;;29.19;37.17;101839.75;5015711;28;45472;-85
2021/07/21 10:11:31;;;;;;;;;15.25;13.75;;;;;29.27;37.10;101833.84;4989019;28;46112;-85
2021/07/21 10:14:03;;;;;;;;;19.00;15.25;;;;;29.32;35.69;101836.22;5002100;28;45379;-85
2021/07/21 10:16:40;;;;;;;;;16.50;15.75;;;;;29.33;36.71;101840.72;5002111;28;45316;-87
2021/07/21 10:19:17;;;;;;;;;16.25;15.00;;;;;29.37;37.15;101831.38;4998697;28;45569;-87
2021/07/21 10:21:51;;;;;;;;;21.00;16.75;;;;;29.41;36.70;101831.09;5014439;28;46358;-83
2021/07/21 10:24:17;;;;;;;;;16.75;16.00;;;;;29.55;36.26;101829.31;4966908;28;45677;-83
2021/07/21 10:26:44;;;;;;;;;14.25;14.25;;;;;29.62;36.18;101830.63;4997688;28;45315;-87
2021/07/21 10:29:12;;;;;;;;;14.75;13.00;;;;;29.69;36.56;101826.56;5012395;28;45230;-83
2021/07/21 10:31:39;;;;;;;;;14.50;14.50;;;;;29.83;36.39;101826.50;5006066;28;46717;-88
2021/07/21 10:34:05;;;;;;;;;13.50;13.50;;;;;29.95;35.44;101824.78;5010787;28;45502;-88
2021/07/21 10:36:32;;;;;;;;;14.75;14.50;;;;;29.97;34.99;101832.84;4988276;28;45349;-83
2021/07/21 10:38:59;;;;;;;;;18.00;16.25;;;;;29.98;34.73;101821.00;5009598;28;45412;-86
2021/07/21 10:41:29;;;;;;;;;16.00;14.75;;;;;30.03;35.68;101827.84;4988528;28;48314;-86
2021/07/21 10:43:57;;;;;;;;;16.50;15.50;;;;;30.24;35.97;101830.09;4993749;28;45681;-86
2021/07/21 10:46:38;;;;;;;;;17.50;15.50;;;;;30.52;35.99;101834.47;5005945;28;45325;-83
2021/07/21 10:49:29;;;;;;;;;17.75;15.00;;;;;30.64;35.07;101835.44;5009290;28;45445;-87
2021/07/21 10:54:55;;;;;;;;;14.25;14.25;;;;;30.76;34.87;101827.25;5008337;28;45388;-86
2021/07/21 11:00:28;;;;;;;;;13.00;10.00;;;;;30.95;34.37;101828.69;5011622;28;45219;-88
2021/07/21 11:03:13;;;;;;;;;12.50;11.75;;;;;31.04;34.82;101830.75;5021589;28;46144;-90
2021/07/21 11:05:40;;;;;;;;;16.50;15.00;;;;;31.19;35.36;101826.91;5011906;28;45600;-87
2021/07/21 11:08:14;;;;;;;;;17.25;15.50;;;;;31.45;34.72;101823.25;5010586;28;45486;-88
2021/07/21 11:10:44;;;;;;;;;15.00;14.50;;;;;31.64;34.30;101827.19;5006663;28;45257;-87
2021/07/21 11:13:15;;;;;;;;;17.50;16.75;;;;;31.76;33.68;101827.25;5010476;28;48138;-88
2021/07/21 11:15:43;;;;;;;;;15.25;14.25;;;;;31.78;33.49;101823.44;5003553;28;45474;-88
2021/07/21 11:18:21;;;;;;;;;12.50;12.50;;;;;31.80;33.92;101823.31;5000588;28;45413;-88
2021/07/21 11:21:09;;;;;;;;;14.75;14.75;;;;;31.84;33.35;101822.09;5005174;28;45551;-86
2021/07/21 11:23:50;;;;;;;;;17.50;14.75;;;;;31.76;33.48;101814.50;5024763;28;47346;-89
2021/07/21 11:26:31;;;;;;;;;15.25;13.50;;;;;31.75;33.59;101823.66;5008933;28;45373;-89
2021/07/21 11:29:19;;;;;;;;;12.75;12.75;;;;;31.81;33.88;101814.13;5005491;28;45277;-87
2021/07/21 11:31:55;;;;;;;;;12.50;12.50;;;;;31.98;33.51;101821.06;5004830;28;45475;-85
2021/07/21 11:34:31;;;;;;;;;14.50;14.50;;;;;32.05;33.28;101811.41;5024845;28;46714;-88
2021/07/21 11:37:00;;;;;;;;;9.75;9.00;;;;;32.04;32.73;101813.25;5016766;28;45276;-85
2021/07/21 11:39:51;;;;;;;;;14.25;14.25;;;;;31.96;33.28;101818.44;5005840;28;45454;-87
2021/07/21 11:42:38;;;;;;;;;15.50;15.25;;;;;31.93;32.94;101821.41;5005438;28;45201;-86
2021/07/21 11:45:11;;;;;;;;;15.25;15.25;;;;;31.93;33.38;101805.06;5020322;28;47134;-87
2021/07/21 11:47:44;;;;;;;;;17.25;16.00;;;;;31.97;33.31;101806.56;5023255;28;45319;-85
2021/07/21 11:50:22;;;;;;;;;14.75;13.25;;;;;32.07;32.99;101796.66;5025568;28;45468;-87
2021/07/21 11:52:51;;;;;;;;;11.75;11.75;;;;;32.22;33.16;101802.78;5013833;28;45435;-86
2021/07/21 11:55:22;;;;;;;;;14.25;12.00;;;;;32.26;32.99;101795.22;5020428;28;47102;-86
2021/07/21 11:57:48;;;;;;;;;14.00;13.00;;;;;32.36;32.73;101788.06;5012475;28;44802;-90
2021/07/21 12:00:21;;;;;;;;;17.75;15.50;;;;;32.42;32.29;101792.16;5019212;28;45413;-85
2021/07/21 12:02:57;;;;;;;;;14.25;14.25;;;;;32.52;33.00;101790.47;5012906;28;45250;-91
2021/07/21 12:05:32;;;;;;;;;;;;;;;;;;;;;
2021/07/21 12:08:06;;;;;;;;;17.75;15.25;;;;;32.73;31.68;101790.59;5000853;28;71952;-87
2021/07/21 12:10:47;;;;;;;;;12.75;11.75;;;;;32.80;31.88;101789.13;5009914;28;45319;-83
2021/07/21 12:13:15;;;;;;;;;15.50;14.00;;;;;32.95;32.08;101782.38;5020910;28;45351;-89
2021/07/21 12:15:43;;;;;;;;;15.00;14.00;;;;;33.15;31.82;101788.13;5022504;28;47188;-84
2021/07/21 12:18:26;;;;;;;;;16.25;14.25;;;;;33.31;32.01;101780.38;5010046;28;45212;-87
2021/07/21 12:20:52;;;;;;;;;15.00;15.00;;;;;33.45;31.03;101781.06;4996679;28;45472;-86
2021/07/21 12:23:24;;;;;;;;;17.25;14.50;;;;;33.51;31.78;101786.00;5005422;28;45429;-88
2021/07/21 12:26:38;;;;;;;;;11.50;10.50;;;;;33.67;31.69;101780.16;5015229;28;48103;-89
2021/07/21 12:29:27;;;;;;;;;14.50;14.50;;;;;33.76;30.57;101772.03;5011387;28;45557;-88
2021/07/21 12:32:39;;;;;;;;;12.50;12.50;;;;;33.65;29.77;101772.06;5021228;28;45245;-91
2021/07/21 12:35:28;;;;;;;;;10.75;10.75;;;;;33.50;30.25;101776.97;5008184;28;45577;-87
2021/07/21 12:38:28;;;;;;;;;10.75;10.50;;;;;33.51;31.08;101775.94;4972278;28;46795;-86
2021/07/21 12:41:09;;;;;;;;;14.00;13.50;;;;;33.50;30.09;101766.03;4999579;28;45419;-86
2021/07/21 12:44:04;;;;;;;;;18.00;15.25;;;;;33.37;30.56;101765.34;4992816;28;45301;-86
2021/07/21 12:53:15;;;;;;;;;;;;;;;;;;;;;
2021/07/21 12:59:48;;;;;;;;;;;;;;;;;;;;;
2021/07/21 13:03:06;;;;;;;;;;;;;;;;;;;;;
2021/07/21 13:30:23;;;;;;;;;16.00;15.00;;;;;33.58;29.56;101760.81;4873500;28;45309;-83
2021/07/21 13:33:07;;;;;;;;;12.75;12.75;;;;;33.50;29.63;101757.84;4901229;28;45945;-87
2021/07/21 13:35:33;;;;;;;;;16.50;14.75;;;;;33.64;29.82;101756.69;4921472;28;45368;-83
2021/07/21 13:37:59;;;;;;;;;12.25;9.50;;;;;33.71;29.77;101752.44;4997439;28;45464;-80
2021/07/21 13:40:25;;;;;;;;;13.50;11.50;;;;;33.89;30.31;101758.16;5003456;28;47139;-87
2021/07/21 13:43:27;;;;;;;;;13.50;12.50;;;;;34.08;29.66;101762.06;5019850;28;45560;-82
2021/07/21 13:46:31;;;;;;;;;15.00;11.50;;;;;34.24;28.99;101755.13;4946323;28;45547;-88
2021/07/21 13:49:38;;;;;;;;;15.25;14.00;;;;;34.29;28.21;101754.69;4985912;28;45572;-83
2021/07/21 13:52:20;;;;;;;;;12.50;11.00;;;;;34.20;27.81;101758.25;4986272;28;48105;-85
2021/07/21 13:55:21;;;;;;;;;11.75;11.75;;;;;34.06;28.62;101751.28;5020429;28;45487;-88
2021/07/21 13:57:47;;;;;;;;;13.75;13.25;;;;;34.13;29.02;101754.31;4927570;28;45564;-82
2021/07/21 14:00:13;;;;;;;;;14.25;13.25;;;;;34.31;29.40;101757.31;4994721;28;45820;-84
2021/07/21 14:02:38;;;;;;;;;17.00;13.25;;;;;34.46;28.47;101758.69;5017130;28;45424;-85
2021/07/21 14:05:04;;;;;;;;;12.50;10.75;;;;;34.53;28.00;101754.38;5000040;28;45361;-84
2021/07/21 14:07:32;;;;;;;;;14.25;12.25;;;;;34.46;28.22;101751.34;5002324;28;45343;-85
2021/07/21 14:09:58;;;;;;;;;15.25;15.00;;;;;34.41;28.77;101753.63;5000416;28;45306;-84
2021/07/21 14:12:23;;;;;;;;;10.00;9.00;;;;;34.48;28.83;101749.34;5001353;28;46051;-84
2021/07/21 14:14:49;;;;;;;;;15.00;14.00;;;;;34.54;28.64;101749.78;5008410;28;45356;-83
2021/07/21 14:17:14;;;;;;;;;11.75;11.75;;;;;34.61;29.49;101740.91;5004246;28;45178;-85
2021/07/21 14:20:44;;;;;;;;;;;;;;;;;;;;;
2021/07/21 14:22:41;;;;;;;;;14.75;14.25;;;;;34.87;28.03;101745.91;5003320;28;45618;-89
2021/07/21 14:25:09;;;;;;;;;12.75;11.75;;;;;34.96;28.21;101742.31;5008406;28;45306;-86
2021/07/21 14:27:43;;;;;;;;;13.50;13.25;;;;;34.96;28.18;101752.41;5013810;28;45450;-86
2021/07/21 14:30:09;;;;;;;;;15.00;14.25;;;;;34.91;27.87;101752.81;5012607;28;45479;-85
2021/07/21 14:32:35;;;;;;;;;14.25;13.50;;;;;34.97;28.82;101744.06;5002635;28;46692;-86
2021/07/21 14:35:09;;;;;;;;;14.00;14.00;;;;;34.99;28.13;101744.78;4999288;28;45534;-88
2021/07/21 14:37:55;;;;;;;;;18.50;16.75;;;;;35.11;28.15;101734.59;5031817;28;45430;-88
2021/07/21 14:40:47;;;;;;;;;15.00;14.50;;;;;35.18;27.64;101749.47;4988685;28;45667;-90
2021/07/21 14:43:15;;;;;;;;;17.25;13.25;;;;;35.12;27.85;101745.44;5003693;28;46879;-88
2021/07/21 14:45:50;;;;;;;;;14.75;14.25;;;;;35.18;28.04;101744.00;5015543;28;45597;-88
2021/07/21 14:49:11;;;;;;;;;17.00;15.25;;;;;34.97;27.64;101730.38;4999189;28;45491;-87
2021/07/21 14:52:13;;;;;;;;;17.75;15.50;;;;;34.84;28.40;101727.88;4968057;28;45400;-86
2021/07/21 14:54:40;;;;;;;;;12.25;11.00;;;;;34.80;27.86;101745.56;4953976;28;46915;-88
2021/07/21 15:00:29;;;;;;;;;16.25;14.50;;;;;34.66;28.31;101737.78;4958329;28;45501;-85
2021/07/21 15:03:04;;;;;;;;;12.75;12.75;;;;;34.78;28.36;101741.25;4987785;28;45466;-81
2021/07/21 15:05:58;;;;;;;;;14.00;13.00;;;;;34.92;28.44;101724.47;5011978;28;45404;-85
2021/07/21 15:08:24;;;;;;;;;14.00;11.75;;;;;34.95;28.45;101726.91;4959740;28;45634;-85
2021/07/21 15:11:03;;;;;;;;;13.00;12.25;;;;;34.94;28.26;101729.78;5000127;28;45579;-88
2021/07/21 15:17:15;;;;;;;;;16.50;15.50;;;;;34.68;27.65;101713.88;4868683;29;45513;-86
2021/07/21 15:19:43;;;;;;;;;12.75;12.25;;;;;34.61;27.46;101718.16;4929673;28;45470;-82
2021/07/21 15:22:19;;;;;;;;;16.00;15.00;;;;;34.58;27.62;101718.44;4979097;28;45282;-87
2021/07/21 15:24:45;;;;;;;;;10.75;10.75;;;;;34.70;27.81;101720.09;4995635;28;45433;-84
2021/07/21 15:27:19;;;;;;;;;12.25;12.25;;;;;34.85;27.43;101720.53;4988507;28;45397;-84
2021/07/21 15:29:46;;;;;;;;;15.75;14.00;;;;;34.96;27.62;101716.81;4987951;28;45391;-84
2021/07/21 15:32:13;;;;;;;;;12.75;12.75;;;;;34.92;27.34;101714.38;4990935;28;45343;-84
2021/07/21 15:34:39;;;;;;;;;14.50;13.50;;;;;34.88;28.40;101723.88;5000903;28;45494;-87
2021/07/21 15:37:06;;;;;;;;;14.50;14.00;;;;;34.88;28.17;101717.53;4994555;28;48608;-83
2021/07/21 15:39:39;;;;;;;;;14.00;14.00;;;;;34.79;28.19;101712.91;4983459;28;45447;-83
2021/07/21 15:42:08;;;;;;;;;18.00;16.00;;;;;34.82;28.04;101715.34;4988436;28;45341;-84
2021/07/21 15:44:34;;;;;;;;;15.50;14.25;;;;;34.76;28.36;101711.31;4983183;28;45166;-83
2021/07/21 15:47:58;;;;;;;;;13.00;13.00;;;;;34.75;28.26;101716.91;4991033;28;48030;-87
2021/07/21 15:50:24;;;;;;;;;15.25;14.00;;;;;34.57;28.50;101714.84;4976698;28;45681;-83
2021/07/21 15:52:51;;;;;;;;;13.50;13.00;;;;;34.29;28.74;101713.69;5007913;28;45456;-84
2021/07/21 15:55:16;;;;;;;;;15.50;14.00;;;;;34.00;29.29;101711.66;4991477;28;45596;-84
2021/07/21 15:57:42;;;;;;;;;13.25;13.00;;;;;33.80;29.12;101707.06;4992771;28;45507;-83
2021/07/21 16:00:28;;;;;;;;;14.00;12.25;;;;;33.79;29.54;101705.34;4997257;28;45324;-85
2021/07/21 16:03:51;;;;;;;;;;;;;;;;;;;;;
2021/07/21 16:06:21;;;;;;;;;16.50;16.25;;;;;34.06;29.54;101707.53;4982160;28;72776;-88
2021/07/21 16:30:29;;;;;;;;;;;;;;;;;;;;;
2021/07/21 16:32:55;;;;;;;;;17.00;14.50;;;;;34.56;28.64;101698.53;4897850;28;74338;-87
2021/07/21 16:35:21;;;;;;;;;15.25;15.25;;;;;34.43;28.47;101687.84;4920802;28;46665;-91
2021/07/21 16:37:47;;;;;;;;;15.75;15.75;;;;;34.41;28.68;101690.72;4992537;28;45317;-90
2021/07/21 16:40:14;;;;;;;;;15.25;15.25;;;;;34.41;28.94;101682.53;4986453;28;45823;-87
2021/07/21 16:42:58;;;;;;;;;14.50;14.25;;;;;34.51;28.74;101689.88;4998712;28;45397;-89
2021/07/21 16:45:26;;;;;;;;;14.00;14.00;;;;;34.57;29.20;101683.91;4987761;28;46351;-92
2021/07/21 16:47:52;;;;;;;;;12.00;12.00;;;;;34.53;28.88;101690.63;4990528;28;45532;-86
2021/07/21 16:50:23;;;;;;;;;15.50;15.25;;;;;34.52;28.86;101700.69;4984554;28;45443;-91
2021/07/21 16:52:51;;;;;;;;;14.00;13.75;;;;;34.53;28.63;101694.22;5019245;28;45371;-92
2021/07/21 16:55:24;;;;;;;;;16.50;14.00;;;;;34.53;28.50;101696.94;4994169;28;46078;-87
2021/07/21 16:58:00;;;;;;;;;11.50;11.00;;;;;34.57;28.71;101684.75;4990891;28;45381;-91
2021/07/21 17:03:53;;;;;;;;;15.75;14.75;;;;;34.71;28.21;101688.97;5004614;28;45306;-92
2021/07/21 17:06:21;;;;;;;;;12.75;12.50;;;;;34.75;28.03;101684.06;4996563;28;48403;-83
2021/07/21 17:08:59;;;;;;;;;18.25;15.25;;;;;34.80;27.98;101692.72;4988324;28;45470;-93
2021/07/21 17:11:24;;;;;;;;;13.75;13.00;;;;;34.87;28.13;101691.16;4975640;28;45483;-91
2021/07/21 17:14:39;;;;;;;;;14.50;12.75;;;;;34.88;27.66;101696.50;4988257;28;46040;-89
2021/07/21 17:17:08;;;;;;;;;14.25;14.25;;;;;34.75;27.52;101692.28;4989776;28;47079;-94
2021/07/21 17:20:17;;;;;;;;;19.00;16.75;;;;;34.62;27.53;101692.56;4998883;28;45767;-90
2021/07/21 17:22:46;;;;;;;;;13.25;13.25;;;;;34.43;27.69;101696.03;4998954;28;45419;-90
2021/07/21 17:25:11;;;;;;;;;13.50;13.00;;;;;34.37;28.61;101692.00;4989550;28;45547;-88
2021/07/21 17:27:38;;;;;;;;;14.75;13.50;;;;;34.33;28.57;101690.56;4973705;28;46202;-88
2021/07/21 17:30:09;;;;;;;;;11.25;11.00;;;;;34.22;28.06;101680.56;5015029;28;45449;-83
2021/07/21 17:32:35;;;;;;;;;13.50;12.50;;;;;34.08;28.35;101688.25;4999390;28;45302;-91
2021/07/21 17:35:02;;;;;;;;;15.00;14.50;;;;;33.93;28.61;101691.31;4997813;28;45325;-88
2021/07/21 17:37:28;;;;;;;;;11.75;10.75;;;;;33.74;28.10;101686.59;4995949;28;47066;-84
2021/07/21 17:39:53;;;;;;;;;15.25;15.25;;;;;33.67;28.66;101682.66;5016261;28;45446;-91
2021/07/21 17:42:22;;;;;;;;;11.50;11.50;;;;;33.64;28.97;101682.09;4986574;28;45266;-88
2021/07/21 17:48:00;;;;;;;;;16.25;15.50;;;;;33.60;29.34;101689.66;4918990;29;45443;-92
2021/07/21 18:10:45;;;;;;;;;;;;;;;;;;;;;
2021/07/21 18:13:13;;;;;;;;;13.75;13.75;;;;;36.99;24.86;101681.75;4903157;28;74054;-85
2021/07/21 18:25:54;;;;;;;;;15.50;14.75;;;;;37.32;24.39;101688.47;4821336;29;45248;-93
2021/07/21 18:28:49;;;;;;;;;15.50;14.25;;;;;37.01;25.03;101679.72;4960813;28;45467;-90
2021/07/21 18:31:15;;;;;;;;;17.00;16.00;;;;;36.92;25.43;101680.63;4962594;28;45550;-88
2021/07/21 18:33:41;;;;;;;;;19.25;16.75;;;;;36.76;26.62;101686.84;4966540;28;45594;-89
2021/07/21 18:36:07;;;;;;;;;20.25;17.50;;;;;36.46;25.59;101679.75;4955490;28;47154;-89